createdAt,value
2024-02-16T00:00:27.508Z,29.50
2024-02-16T00:05:52.859Z,30.60
2024-02-16T00:10:56.242Z,32.90
2024-02-16T00:15:59.571Z,31.30
2024-02-16T00:21:03.417Z,33.40
2024-02-16T00:26:08.542Z,31.50
2024-02-16T00:31:11.808Z,31.90
2024-02-16T00:36:15.686Z,32.40
2024-02-16T00:41:21.778Z,31.30
2024-02-16T00:46:25.208Z,31.60
2024-02-16T00:51:28.628Z,28.90
2024-02-16T00:56:35.397Z,32.60
2024-02-16T01:01:38.674Z,31.00
2024-02-16T01:06:41.907Z,31.40
2024-02-16T01:11:45.175Z,33.00
2024-02-16T01:16:48.423Z,31.90
2024-02-16T01:21:58.878Z,29.80
2024-02-16T01:27:02.924Z,32.80
2024-02-16T01:32:06.332Z,36.20
2024-02-16T01:37:09.368Z,39.70
2024-02-16T01:42:14.168Z,36.30
2024-02-16T01:47:20.061Z,36.80
2024-02-16T01:52:23.202Z,32.60
2024-02-16T01:57:26.941Z,34.40
2024-02-16T02:02:30.096Z,31.10
2024-02-16T02:07:33.312Z,32.10
2024-02-16T02:12:36.517Z,35.80
2024-02-16T02:17:40.589Z,30.80
2024-02-16T02:22:44.161Z,31.80
2024-02-16T02:27:47.804Z,30.30
2024-02-16T02:32:53.688Z,28.80
2024-02-16T02:37:56.753Z,28.80
2024-02-16T02:42:59.672Z,32.80
2024-02-16T02:48:02.841Z,31.30
2024-02-16T02:53:06.053Z,31.10
2024-02-16T02:58:09.107Z,30.60
2024-02-16T03:03:12.295Z,29.10
2024-02-16T03:08:15.816Z,26.90
2024-02-16T03:13:20.226Z,28.20
2024-02-16T03:18:24.111Z,28.00
2024-02-16T03:23:27.531Z,28.60
2024-02-16T03:28:30.614Z,28.00
2024-02-16T03:33:34.063Z,30.60
2024-02-16T03:38:37.257Z,31.70
2024-02-16T03:43:40.460Z,34.30
2024-02-16T03:48:44.136Z,34.50
2024-02-16T03:53:47.879Z,32.30
2024-02-16T03:58:51.114Z,31.40
2024-02-16T04:03:54.362Z,33.00
2024-02-16T04:08:58.007Z,32.60
2024-02-16T04:14:01.476Z,31.10
2024-02-16T04:19:04.842Z,37.30
2024-02-16T04:24:09.063Z,37.90
2024-02-16T04:29:13.003Z,29.70
2024-02-16T04:34:16.175Z,29.80
2024-02-16T04:39:21.175Z,28.50
2024-02-16T04:44:24.477Z,33.50
2024-02-16T04:49:27.643Z,30.50
2024-02-16T04:54:31.024Z,26.60
2024-02-16T04:59:34.118Z,27.60
2024-02-16T05:04:37.232Z,27.30
2024-02-16T05:09:41.188Z,30.40
2024-02-16T05:14:44.261Z,29.40
2024-02-16T05:19:47.594Z,26.70
2024-02-16T05:24:56.134Z,27.40
2024-02-16T05:29:59.894Z,29.20
2024-02-16T05:35:12.661Z,28.10
2024-02-16T05:40:31.867Z,29.50
2024-02-16T05:45:36.780Z,27.40
2024-02-16T05:50:39.982Z,28.30
2024-02-16T05:55:45.613Z,27.80
2024-02-16T06:00:49.613Z,29.30
2024-02-16T06:05:52.732Z,26.00
2024-02-16T06:10:55.957Z,27.40
2024-02-16T06:15:59.047Z,23.90
2024-02-16T06:21:05.260Z,24.10
2024-02-16T06:26:08.470Z,25.30
2024-02-16T06:31:12.128Z,23.50
2024-02-16T06:36:15.203Z,25.80
2024-02-16T06:41:18.238Z,26.60
2024-02-16T06:46:21.455Z,26.70
2024-02-16T06:51:27.930Z,23.70
2024-02-16T06:56:32.067Z,24.60
2024-02-16T07:01:35.129Z,21.90
2024-02-16T07:06:38.299Z,24.90
2024-02-16T07:11:41.374Z,23.90
2024-02-16T07:16:44.388Z,21.90
2024-02-16T07:21:47.522Z,23.00
2024-02-16T07:26:50.665Z,22.70
2024-02-16T07:31:53.828Z,20.20
2024-02-16T07:36:58.011Z,20.80
2024-02-16T07:42:01.049Z,20.10
2024-02-16T07:47:04.594Z,19.40
2024-02-16T07:52:07.662Z,19.60
2024-02-16T07:57:10.700Z,20.20
2024-02-16T08:02:16.784Z,18.80
2024-02-16T08:07:19.961Z,16.30
2024-02-16T08:12:23.531Z,18.70
2024-02-16T08:17:26.623Z,19.30
2024-02-16T08:22:29.810Z,19.20
2024-02-16T08:27:33.685Z,18.20
2024-02-16T08:32:36.714Z,19.00
2024-02-16T08:37:40.304Z,19.90
2024-02-16T08:42:44.051Z,23.80
2024-02-16T08:47:50.489Z,19.20
2024-02-16T08:52:56.565Z,17.80
2024-02-16T08:57:59.653Z,18.50
2024-02-16T09:03:07.635Z,16.60
2024-02-16T09:08:11.207Z,17.10
2024-02-16T09:13:14.307Z,18.40
2024-02-16T09:18:17.909Z,18.50
2024-02-16T09:23:21.087Z,17.00
2024-02-16T09:28:29.848Z,18.60
2024-02-16T09:33:36.485Z,16.60
2024-02-16T09:38:39.818Z,16.40
2024-02-16T09:43:44.858Z,16.00
2024-02-16T09:48:54.302Z,12.50
2024-02-16T09:54:00.246Z,16.50
2024-02-16T09:59:06.288Z,15.00
2024-02-16T10:04:11.049Z,16.10
2024-02-16T10:09:25.128Z,13.00
2024-02-16T10:14:29.530Z,15.70
2024-02-16T10:19:43.374Z,14.90
2024-02-16T10:24:47.564Z,15.90
2024-02-16T10:29:55.582Z,13.40
2024-02-16T10:34:59.853Z,13.00
2024-02-16T10:40:04.386Z,15.60
2024-02-16T10:45:08.699Z,13.20
2024-02-16T10:50:13.669Z,13.80
2024-02-16T10:55:18.223Z,13.10
2024-02-16T11:00:22.313Z,12.10
2024-02-16T11:05:48.281Z,10.60
2024-02-16T11:11:05.054Z,10.80
2024-02-16T11:16:10.585Z,11.70
2024-02-16T11:21:16.428Z,10.00
2024-02-16T11:26:19.454Z,10.70
2024-02-16T11:31:23.229Z,12.00
2024-02-16T11:36:29.345Z,10.70
2024-02-16T11:41:32.435Z,8.70
2024-02-16T11:46:36.889Z,10.90
2024-02-16T11:51:40.821Z,11.00
2024-02-16T11:56:52.921Z,13.60
2024-02-16T12:01:59.808Z,10.60
2024-02-16T12:07:05.930Z,13.60
2024-02-16T12:12:09.537Z,11.00
2024-02-16T12:17:12.563Z,11.60
2024-02-16T12:22:22.798Z,13.60
2024-02-16T12:27:25.865Z,12.30
2024-02-16T12:32:29.517Z,11.70
2024-02-16T12:37:32.638Z,10.80
2024-02-16T12:42:36.080Z,9.50
2024-02-16T12:47:41.804Z,10.90
2024-02-16T12:52:54.962Z,8.70
2024-02-16T12:58:09.475Z,10.50
2024-02-16T13:03:21.760Z,11.50
2024-02-16T13:08:29.418Z,11.80
2024-02-16T13:13:33.287Z,9.80
2024-02-16T13:18:38.737Z,11.00
2024-02-16T13:23:41.956Z,8.80
2024-02-16T13:28:45.105Z,10.00
2024-02-16T13:33:48.244Z,10.40
2024-02-16T13:38:51.500Z,20.10
2024-02-16T13:43:54.773Z,11.90
2024-02-16T13:48:58.848Z,10.20
2024-02-16T13:54:02.528Z,9.60
2024-02-16T13:59:09.093Z,10.40
2024-02-16T14:04:15.958Z,8.10
2024-02-16T14:09:24.333Z,10.70
2024-02-16T14:14:37.994Z,8.60
2024-02-16T14:19:42.884Z,11.50
2024-02-16T14:24:46.234Z,8.30
2024-02-16T14:29:49.263Z,13.20
2024-02-16T14:34:53.030Z,23.00
2024-02-16T14:39:59.916Z,13.00
2024-02-16T14:45:06.979Z,9.60
2024-02-16T14:50:22.643Z,10.40
2024-02-16T14:55:28.109Z,13.00
2024-02-16T15:00:32.448Z,17.80
2024-02-16T15:05:36.473Z,12.30
2024-02-16T15:10:41.893Z,15.90
2024-02-16T15:15:45.504Z,14.60
2024-02-16T15:20:51.271Z,12.60
2024-02-16T15:25:57.917Z,15.60
2024-02-16T15:31:12.829Z,12.30
2024-02-16T15:36:16.488Z,9.60
2024-02-16T15:41:19.535Z,12.00
2024-02-16T15:46:22.537Z,12.90
2024-02-16T15:51:25.585Z,13.40
2024-02-16T15:56:28.997Z,11.40
2024-02-16T16:01:38.660Z,11.70
2024-02-16T16:06:43.429Z,13.10
2024-02-16T16:11:47.202Z,17.40
2024-02-16T16:16:55.054Z,13.40
2024-02-16T16:22:02.126Z,19.10
2024-02-16T16:27:10.031Z,14.10
2024-02-16T16:32:14.622Z,18.10
2024-02-16T16:37:17.669Z,16.90
2024-02-16T16:42:20.805Z,14.20
2024-02-16T16:47:24.573Z,14.00
2024-02-16T16:52:27.752Z,15.10
2024-02-16T16:57:30.890Z,19.00
2024-02-16T17:02:34.811Z,17.80
2024-02-16T17:07:37.839Z,15.40
2024-02-16T17:12:41.922Z,17.30
2024-02-16T17:17:49.970Z,16.90
2024-02-16T17:22:54.822Z,20.30
2024-02-16T17:27:58.332Z,17.30
2024-02-16T17:33:02.951Z,21.40
2024-02-16T17:38:06.037Z,19.00
2024-02-16T17:43:09.203Z,17.10
2024-02-16T17:48:12.721Z,19.50
2024-02-16T17:53:16.031Z,18.30
2024-02-16T17:58:19.328Z,16.40
2024-02-16T18:03:22.521Z,16.10
2024-02-16T18:08:27.871Z,20.40
2024-02-16T18:13:32.440Z,17.10
2024-02-16T18:18:35.515Z,15.10
2024-02-16T18:23:42.968Z,16.20
2024-02-16T18:28:46.383Z,18.10
2024-02-16T18:33:49.878Z,15.20
2024-02-16T18:38:53.189Z,17.40
2024-02-16T18:43:56.122Z,18.60
2024-02-16T18:48:59.666Z,18.10
2024-02-16T18:54:03.961Z,15.70
2024-02-16T18:59:09.441Z,13.40
2024-02-16T19:04:12.571Z,15.80
2024-02-16T19:09:15.625Z,15.10
2024-02-16T19:14:19.786Z,13.90
2024-02-16T19:19:24.090Z,15.30
2024-02-16T19:24:33.492Z,15.80
2024-02-16T19:29:43.206Z,18.00
2024-02-16T19:34:46.294Z,19.50
2024-02-16T19:39:49.385Z,19.40
2024-02-16T19:44:52.510Z,28.50
2024-02-16T19:49:55.550Z,31.70
2024-02-16T19:54:59.984Z,19.50
2024-02-16T20:00:04.926Z,22.40
2024-02-16T20:05:08.541Z,17.20
2024-02-16T20:10:12.061Z,18.30
2024-02-16T20:15:16.060Z,25.50
2024-02-16T20:20:23.446Z,25.00
2024-02-16T20:25:27.448Z,25.20
2024-02-16T20:30:31.449Z,20.70
2024-02-16T20:35:34.592Z,16.20
2024-02-16T20:40:37.747Z,23.80
2024-02-16T20:45:40.921Z,16.80
2024-02-16T20:50:43.978Z,27.60
2024-02-16T20:55:47.159Z,22.70
2024-02-16T21:00:50.276Z,18.30
2024-02-16T21:05:53.414Z,33.80
2024-02-16T21:10:56.831Z,27.20
2024-02-16T21:15:59.789Z,17.00
2024-02-16T21:21:04.615Z,27.90
2024-02-16T21:26:07.539Z,16.70
2024-02-16T21:31:10.462Z,17.80
2024-02-16T21:36:16.027Z,13.20
2024-02-16T21:41:19.199Z,17.90
2024-02-16T21:46:30.868Z,17.50
2024-02-16T21:51:36.644Z,18.80
2024-02-16T21:56:39.760Z,15.10
2024-02-16T22:01:42.771Z,15.10
2024-02-16T22:06:46.646Z,14.90
2024-02-16T22:11:50.093Z,14.60
2024-02-16T22:16:53.135Z,11.30
2024-02-16T22:21:58.197Z,11.30
2024-02-16T22:27:01.464Z,12.70
2024-02-16T22:32:12.178Z,12.10
2024-02-16T22:37:20.317Z,11.80
2024-02-16T22:42:23.426Z,11.80
2024-02-16T22:47:26.412Z,11.00
2024-02-16T22:52:29.536Z,11.00
2024-02-16T22:57:32.690Z,10.90
2024-02-16T23:02:36.344Z,10.90
2024-02-16T23:07:39.253Z,11.00
2024-02-16T23:12:43.556Z,10.60
2024-02-16T23:17:48.161Z,12.50
2024-02-16T23:22:58.789Z,11.40
2024-02-16T23:28:02.082Z,11.50
2024-02-16T23:33:05.969Z,11.80
2024-02-16T23:38:09.201Z,9.80
2024-02-16T23:43:13.063Z,11.50
2024-02-16T23:48:16.271Z,12.30
2024-02-16T23:53:19.225Z,11.10
2024-02-16T23:58:22.392Z,11.80
